createdAt,value
2022-11-26T00:01:14.957Z,4.57
2022-11-26T00:03:42.543Z,3.40
2022-11-26T00:06:34.128Z,4.25
2022-11-26T00:09:01.167Z,3.65
2022-11-26T00:11:28.112Z,4.00
2022-11-26T00:13:54.990Z,4.00
2022-11-26T00:16:21.867Z,4.50
2022-11-26T00:18:51.945Z,4.30
2022-11-26T00:21:25.157Z,4.00
2022-11-26T00:23:52.364Z,3.65
2022-11-26T00:26:27.861Z,3.80
2022-11-26T00:29:02.151Z,3.92
2022-11-26T00:31:29.295Z,4.47
2022-11-26T00:33:56.568Z,4.43
2022-11-26T00:36:29.962Z,5.05
2022-11-26T00:39:02.795Z,5.20
2022-11-26T00:41:36.312Z,5.18
2022-11-26T00:44:03.240Z,4.60
2022-11-26T00:46:30.161Z,4.57
2022-11-26T00:48:57.101Z,4.40
2022-11-26T00:51:28.854Z,4.38
2022-11-26T00:53:59.067Z,4.32
2022-11-26T00:56:25.872Z,4.40
2022-11-26T00:58:55.740Z,4.32
2022-11-26T01:01:24.308Z,3.78
2022-11-26T01:03:51.454Z,4.22
2022-11-26T01:06:40.784Z,4.13
2022-11-26T01:09:12.005Z,4.43
2022-11-26T01:11:39.335Z,4.90
2022-11-26T01:14:06.516Z,4.45
2022-11-26T01:16:38.933Z,3.63
2022-11-26T01:19:06.202Z,4.05
2022-11-26T01:21:33.469Z,3.95
2022-11-26T01:24:00.305Z,3.58
2022-11-26T01:26:31.735Z,3.88
2022-11-26T01:28:58.546Z,3.45
2022-11-26T01:31:26.951Z,3.53
2022-11-26T01:33:53.981Z,4.15
2022-11-26T01:36:20.934Z,4.32
2022-11-26T01:38:47.808Z,3.70
2022-11-26T01:41:53.406Z,4.13
2022-11-26T01:44:29.146Z,3.33
2022-11-26T01:46:56.338Z,3.40
2022-11-26T01:49:29.159Z,3.10
2022-11-26T01:52:11.564Z,3.70
2022-11-26T01:54:39.858Z,3.78
2022-11-26T01:57:18.950Z,3.50
2022-11-26T01:59:54.033Z,3.50
2022-11-26T02:02:22.215Z,3.65
2022-11-26T02:05:11.192Z,3.70
2022-11-26T02:07:38.161Z,3.00
2022-11-26T02:10:05.526Z,3.15
2022-11-26T02:12:32.407Z,3.42
2022-11-26T02:14:59.620Z,3.90
2022-11-26T02:17:29.660Z,3.60
2022-11-26T02:20:26.360Z,3.53
2022-11-26T02:23:31.488Z,2.65
2022-11-26T02:26:12.813Z,2.90
2022-11-26T02:28:47.194Z,3.83
2022-11-26T02:31:32.136Z,3.35
2022-11-26T02:33:58.992Z,3.38
2022-11-26T02:36:30.089Z,3.10
2022-11-26T02:38:57.021Z,4.35
2022-11-26T02:41:23.791Z,3.47
2022-11-26T02:43:50.744Z,3.17
2022-11-26T02:46:19.656Z,3.17
2022-11-26T02:48:49.653Z,3.42
2022-11-26T02:51:20.376Z,3.08
2022-11-26T02:53:47.214Z,3.30
2022-11-26T02:56:24.652Z,3.03
2022-11-26T02:58:52.265Z,3.08
2022-11-26T03:01:42.870Z,3.08
2022-11-26T03:04:12.967Z,2.85
2022-11-26T03:06:39.903Z,3.40
2022-11-26T03:09:06.794Z,3.97
2022-11-26T03:11:33.770Z,3.15
2022-11-26T03:14:00.616Z,3.33
2022-11-26T03:16:27.627Z,2.90
2022-11-26T03:18:54.510Z,2.75
2022-11-26T03:21:21.350Z,3.13
2022-11-26T03:23:50.895Z,3.40
2022-11-26T03:26:17.712Z,3.25
2022-11-26T03:28:44.507Z,3.22
2022-11-26T03:31:13.427Z,3.92
2022-11-26T03:33:40.225Z,3.17
2022-11-26T03:36:07.395Z,3.53
2022-11-26T03:38:34.147Z,2.95
2022-11-26T03:41:02.517Z,3.38
2022-11-26T03:43:29.398Z,3.30
2022-11-26T03:45:56.307Z,3.55
2022-11-26T03:48:23.180Z,3.10
2022-11-26T03:50:49.966Z,3.10
2022-11-26T03:53:16.795Z,3.28
2022-11-26T03:55:43.670Z,3.20
2022-11-26T03:58:10.457Z,3.03
2022-11-26T04:00:37.290Z,2.58
2022-11-26T04:03:04.136Z,3.70
2022-11-26T04:05:31.048Z,3.88
2022-11-26T04:07:57.885Z,3.13
2022-11-26T04:10:24.762Z,3.20
2022-11-26T04:12:51.518Z,3.22
2022-11-26T04:15:18.516Z,3.88
2022-11-26T04:17:45.292Z,3.17
2022-11-26T04:20:12.337Z,2.95
2022-11-26T04:22:39.202Z,2.53
2022-11-26T04:25:06.254Z,2.80
2022-11-26T04:27:33.105Z,3.50
2022-11-26T04:29:59.887Z,2.90
2022-11-26T04:32:26.691Z,2.90
2022-11-26T04:34:53.620Z,3.08
2022-11-26T04:37:20.443Z,2.97
2022-11-26T04:39:47.248Z,3.78
2022-11-26T04:42:14.096Z,3.15
2022-11-26T04:44:40.918Z,4.45
2022-11-26T04:47:07.808Z,3.45
2022-11-26T04:49:34.595Z,3.28
2022-11-26T04:52:01.394Z,2.97
2022-11-26T04:54:31.333Z,2.97
2022-11-26T04:56:58.216Z,2.60
2022-11-26T04:59:25.102Z,2.80
2022-11-26T05:01:52.001Z,2.90
2022-11-26T05:04:18.854Z,3.13
2022-11-26T05:06:45.786Z,2.78
2022-11-26T05:09:15.399Z,3.28
2022-11-26T05:11:42.263Z,2.95
2022-11-26T05:14:09.072Z,3.00
2022-11-26T05:16:37.108Z,3.20
2022-11-26T05:19:03.974Z,3.03
2022-11-26T05:21:30.779Z,3.35
2022-11-26T05:23:57.516Z,2.60
2022-11-26T05:26:24.374Z,3.03
2022-11-26T05:28:51.158Z,2.72
2022-11-26T05:31:17.977Z,3.05
2022-11-26T05:33:44.827Z,2.60
2022-11-26T05:36:11.646Z,3.75
2022-11-26T05:38:38.407Z,2.90
2022-11-26T05:41:05.171Z,2.80
2022-11-26T05:43:32.029Z,2.80
2022-11-26T05:46:04.949Z,3.22
2022-11-26T05:48:31.986Z,2.60
2022-11-26T05:50:59.731Z,3.28
2022-11-26T05:53:26.800Z,2.25
2022-11-26T05:55:53.751Z,2.88
2022-11-26T05:58:20.587Z,3.20
2022-11-26T06:00:48.553Z,2.67
2022-11-26T06:03:20.008Z,2.85
2022-11-26T06:05:47.439Z,3.17
2022-11-26T06:08:17.058Z,2.63
2022-11-26T06:10:44.124Z,2.60
2022-11-26T06:13:10.977Z,2.88
2022-11-26T06:15:37.908Z,2.67
2022-11-26T06:18:04.726Z,2.75
2022-11-26T06:20:31.591Z,2.70
2022-11-26T06:22:58.450Z,2.67
2022-11-26T06:25:25.282Z,3.20
2022-11-26T06:27:52.345Z,2.90
2022-11-26T06:30:19.585Z,2.30
2022-11-26T06:32:46.350Z,2.75
2022-11-26T06:35:13.295Z,2.50
2022-11-26T06:37:40.304Z,2.50
2022-11-26T06:40:09.165Z,2.83
2022-11-26T06:42:36.031Z,3.15
2022-11-26T06:45:03.424Z,2.58
2022-11-26T06:47:30.282Z,3.65
2022-11-26T06:49:59.741Z,3.00
2022-11-26T06:52:26.631Z,3.17
2022-11-26T06:54:53.608Z,2.60
2022-11-26T06:57:20.430Z,2.78
2022-11-26T06:59:47.459Z,2.50
2022-11-26T07:02:14.326Z,2.95
2022-11-26T07:04:41.435Z,3.28
2022-11-26T07:07:08.542Z,2.97
2022-11-26T07:09:35.415Z,2.90
2022-11-26T07:12:02.175Z,2.70
2022-11-26T07:14:29.017Z,2.42
2022-11-26T07:16:55.954Z,2.90
2022-11-26T07:19:22.827Z,2.80
2022-11-26T07:21:53.094Z,3.20
2022-11-26T07:24:22.050Z,3.13
2022-11-26T07:26:48.838Z,3.15
2022-11-26T07:29:16.135Z,2.83
2022-11-26T07:31:43.051Z,2.83
2022-11-26T07:34:10.534Z,3.63
2022-11-26T07:36:42.909Z,2.83
2022-11-26T07:39:10.066Z,3.10
2022-11-26T07:41:37.129Z,2.70
2022-11-26T07:44:07.181Z,2.45
2022-11-26T07:46:34.188Z,2.80
2022-11-26T07:49:01.118Z,2.70
2022-11-26T07:51:29.945Z,2.70
2022-11-26T07:53:57.656Z,2.95
2022-11-26T07:56:24.567Z,3.00
2022-11-26T07:58:51.461Z,2.45
2022-11-26T08:01:27.178Z,3.35
2022-11-26T08:03:54.130Z,3.35
2022-11-26T08:06:26.424Z,2.85
2022-11-26T08:08:56.235Z,2.95
2022-11-26T08:11:24.605Z,3.15
2022-11-26T08:13:59.030Z,2.75
2022-11-26T08:16:28.589Z,2.60
2022-11-26T08:19:03.545Z,3.00
2022-11-26T08:21:30.472Z,2.70
2022-11-26T08:23:57.363Z,2.85
2022-11-26T08:26:35.105Z,2.88
2022-11-26T08:29:04.182Z,3.28
2022-11-26T08:31:31.166Z,2.90
2022-11-26T08:33:59.082Z,2.50
2022-11-26T08:36:29.914Z,2.95
2022-11-26T08:38:56.996Z,2.88
2022-11-26T08:41:23.896Z,3.70
2022-11-26T08:44:06.017Z,3.25
2022-11-26T08:46:34.011Z,2.72
2022-11-26T08:49:00.833Z,3.60
2022-11-26T08:51:27.735Z,3.10
2022-11-26T08:53:54.645Z,3.15
2022-11-26T08:56:21.539Z,2.83
2022-11-26T08:58:49.014Z,3.08
2022-11-26T09:01:24.871Z,2.80
2022-11-26T09:03:52.710Z,2.72
2022-11-26T09:06:19.956Z,3.30
2022-11-26T09:09:07.196Z,3.00
2022-11-26T09:11:35.893Z,3.40
2022-11-26T09:14:02.920Z,3.10
2022-11-26T09:16:30.091Z,2.85
2022-11-26T09:18:58.874Z,3.17
2022-11-26T09:21:25.726Z,4.20
2022-11-26T09:23:52.690Z,3.30
2022-11-26T09:26:21.613Z,3.22
2022-11-26T09:28:49.236Z,3.30
2022-11-26T09:31:16.705Z,3.67
2022-11-26T09:33:43.903Z,3.38
2022-11-26T09:36:12.616Z,2.85
2022-11-26T09:38:39.534Z,3.00
2022-11-26T09:41:15.140Z,3.40
2022-11-26T09:44:03.328Z,3.00
2022-11-26T09:47:10.986Z,3.47
2022-11-26T09:49:58.704Z,3.05
2022-11-26T09:52:28.734Z,3.67
2022-11-26T09:55:03.110Z,3.28
2022-11-26T09:57:35.062Z,3.33
2022-11-26T10:00:17.675Z,3.20
2022-11-26T10:05:15.920Z,3.35
2022-11-26T10:07:55.992Z,3.78
2022-11-26T10:10:42.862Z,3.97
2022-11-26T10:13:44.090Z,3.65
2022-11-26T10:16:31.577Z,5.45
2022-11-26T10:19:11.649Z,3.90
2022-11-26T10:24:32.920Z,2.92
2022-11-26T10:27:14.440Z,3.75
2022-11-26T10:29:42.347Z,3.75
2022-11-26T10:32:38.108Z,3.22
2022-11-26T10:35:05.581Z,3.65
2022-11-26T10:37:34.328Z,3.42
2022-11-26T10:40:15.572Z,3.92
2022-11-26T10:42:44.500Z,3.47
2022-11-26T10:45:25.804Z,2.92
2022-11-26T10:47:52.869Z,3.67
2022-11-26T10:50:46.713Z,3.20
2022-11-26T10:53:22.349Z,3.30
2022-11-26T10:55:49.312Z,3.40
2022-11-26T10:58:42.605Z,3.30
2022-11-26T11:01:09.672Z,3.25
2022-11-26T11:04:07.517Z,3.20
2022-11-26T11:06:41.401Z,2.72
2022-11-26T11:09:24.681Z,3.20
2022-11-26T11:12:13.525Z,3.45
2022-11-26T11:14:43.300Z,3.67
2022-11-26T11:17:22.899Z,3.10
2022-11-26T11:19:49.780Z,3.08
2022-11-26T11:22:20.241Z,3.08
2022-11-26T11:24:47.189Z,2.70
2022-11-26T11:27:28.452Z,3.47
2022-11-26T11:30:00.537Z,2.78
2022-11-26T11:32:34.350Z,3.17
2022-11-26T11:35:19.841Z,3.08
2022-11-26T11:37:51.813Z,2.60
2022-11-26T11:40:25.051Z,3.10
2022-11-26T11:43:05.244Z,2.75
2022-11-26T11:45:46.299Z,3.15
2022-11-26T11:48:30.968Z,2.88
2022-11-26T11:53:44.660Z,2.38
2022-11-26T11:56:20.821Z,2.90
2022-11-26T11:59:23.292Z,2.45
2022-11-26T12:02:09.217Z,2.90
2022-11-26T12:05:03.785Z,2.90
2022-11-26T12:07:51.991Z,2.65
2022-11-26T12:10:35.771Z,3.08
2022-11-26T12:13:02.818Z,2.92
2022-11-26T12:15:43.017Z,2.65
2022-11-26T12:18:13.133Z,2.35
2022-11-26T12:20:48.270Z,2.83
2022-11-26T12:23:30.399Z,2.45
2022-11-26T12:26:06.433Z,2.45
2022-11-26T12:28:44.738Z,3.00
2022-11-26T12:31:23.193Z,2.80
2022-11-26T12:34:14.332Z,2.70
2022-11-26T12:36:53.900Z,2.50
2022-11-26T12:39:35.929Z,2.70
2022-11-26T12:42:44.329Z,2.72
2022-11-26T12:45:45.115Z,2.63
2022-11-26T12:48:27.052Z,2.15
2022-11-26T12:51:14.908Z,2.30
2022-11-26T12:54:16.919Z,3.28
2022-11-26T12:56:54.585Z,2.53
2022-11-26T12:59:38.948Z,3.20
2022-11-26T13:02:36.115Z,3.42
2022-11-26T13:05:03.190Z,3.15
2022-11-26T13:07:41.449Z,2.67
2022-11-26T13:10:50.422Z,2.80
2022-11-26T13:13:29.309Z,2.50
2022-11-26T13:15:58.960Z,2.28
2022-11-26T13:18:34.763Z,2.72
2022-11-26T13:21:16.696Z,2.92
2022-11-26T13:23:46.499Z,2.90
2022-11-26T13:26:20.499Z,2.80
2022-11-26T13:29:09.147Z,2.25
2022-11-26T13:32:00.186Z,2.38
2022-11-26T13:34:55.333Z,2.95
2022-11-26T13:37:44.235Z,2.75
2022-11-26T13:40:20.167Z,3.30
2022-11-26T13:43:16.923Z,2.88
2022-11-26T13:45:59.287Z,3.10
2022-11-26T13:48:41.391Z,3.28
2022-11-26T13:51:09.905Z,3.40
2022-11-26T13:54:04.160Z,2.42
2022-11-26T13:56:32.365Z,3.45
2022-11-26T13:59:23.987Z,3.22
2022-11-26T14:01:54.004Z,2.35
2022-11-26T14:04:23.933Z,2.63
2022-11-26T14:07:08.978Z,2.38
2022-11-26T14:09:44.901Z,2.67
2022-11-26T14:12:18.417Z,2.50
2022-11-26T14:14:51.683Z,2.33
2022-11-26T14:17:22.482Z,2.10
2022-11-26T14:19:49.630Z,2.78
2022-11-26T14:22:22.527Z,2.40
2022-11-26T14:24:49.485Z,2.60
2022-11-26T14:27:22.877Z,3.33
2022-11-26T14:30:07.990Z,2.83
2022-11-26T14:32:46.008Z,2.72
2022-11-26T14:35:34.422Z,2.83
2022-11-26T14:38:06.294Z,2.67
2022-11-26T14:40:38.012Z,3.07
2022-11-26T14:43:19.718Z,2.75
2022-11-26T14:46:11.757Z,3.40
2022-11-26T14:48:45.435Z,3.05
2022-11-26T14:51:12.537Z,2.45
2022-11-26T14:53:42.980Z,2.78
2022-11-26T14:56:10.407Z,2.40
2022-11-26T14:58:40.237Z,3.10
2022-11-26T15:01:19.620Z,2.50
2022-11-26T15:04:03.908Z,2.67
2022-11-26T15:06:37.685Z,2.40
2022-11-26T15:09:11.517Z,2.35
2022-11-26T15:11:39.286Z,2.45
2022-11-26T15:14:06.931Z,2.60
2022-11-26T15:16:38.065Z,2.20
2022-11-26T15:19:05.533Z,3.13
2022-11-26T15:21:32.548Z,3.28
2022-11-26T15:24:00.819Z,2.80
2022-11-26T15:26:32.286Z,2.63
2022-11-26T15:28:59.259Z,2.33
2022-11-26T15:31:39.778Z,2.72
2022-11-26T15:34:11.776Z,2.88
2022-11-26T15:36:38.677Z,3.03
2022-11-26T15:39:07.276Z,2.70
2022-11-26T15:41:42.502Z,2.30
2022-11-26T15:44:21.613Z,2.67
2022-11-26T15:46:49.437Z,2.30
2022-11-26T15:49:19.960Z,2.60
2022-11-26T15:51:59.423Z,2.50
2022-11-26T15:54:38.391Z,2.53
2022-11-26T15:57:23.327Z,2.97
2022-11-26T15:59:54.406Z,3.22
2022-11-26T16:02:22.956Z,2.88
2022-11-26T16:04:51.141Z,2.58
2022-11-26T16:07:22.497Z,2.78
2022-11-26T16:09:51.101Z,3.08
2022-11-26T16:12:34.745Z,3.10
2022-11-26T16:15:19.735Z,2.78
2022-11-26T16:17:47.308Z,3.00
2022-11-26T16:20:34.510Z,2.67
2022-11-26T16:23:01.572Z,3.00
2022-11-26T16:25:30.763Z,2.88
2022-11-26T16:28:05.781Z,3.33
2022-11-26T16:30:33.644Z,3.00
2022-11-26T16:33:02.046Z,3.40
2022-11-26T16:35:46.002Z,4.05
2022-11-26T16:38:21.601Z,2.88
2022-11-26T16:40:49.173Z,2.80
2022-11-26T16:43:16.113Z,3.00
2022-11-26T16:45:43.154Z,2.85
2022-11-26T16:48:20.989Z,2.70
2022-11-26T16:50:48.304Z,2.50
2022-11-26T16:53:15.392Z,3.47
2022-11-26T16:55:42.435Z,3.38
2022-11-26T16:58:12.324Z,3.47
2022-11-26T17:00:39.823Z,3.15
2022-11-26T17:03:11.398Z,2.90
2022-11-26T17:05:40.632Z,3.20
2022-11-26T17:08:10.305Z,2.80
2022-11-26T17:10:37.379Z,2.85
2022-11-26T17:13:04.874Z,3.50
2022-11-26T17:15:31.782Z,3.30
2022-11-26T17:18:10.553Z,3.75
2022-11-26T17:20:40.489Z,2.85
2022-11-26T17:23:07.644Z,2.85
2022-11-26T17:25:34.466Z,3.20
2022-11-26T17:28:01.340Z,2.75
2022-11-26T17:30:28.513Z,3.53
2022-11-26T17:32:55.566Z,2.80
2022-11-26T17:35:22.615Z,3.55
2022-11-26T17:37:49.557Z,3.00
2022-11-26T17:40:23.369Z,3.20
2022-11-26T17:42:50.312Z,3.47
2022-11-26T17:45:17.625Z,3.20
2022-11-26T17:47:44.943Z,3.15
2022-11-26T17:50:18.193Z,2.90
2022-11-26T17:52:45.627Z,2.88
2022-11-26T17:55:13.188Z,3.45
2022-11-26T17:57:40.183Z,2.92
2022-11-26T18:00:08.205Z,2.63
2022-11-26T18:02:35.704Z,3.25
2022-11-26T18:05:02.674Z,3.15
2022-11-26T18:07:29.750Z,3.22
2022-11-26T18:09:57.725Z,3.60
2022-11-26T18:12:25.810Z,2.70
2022-11-26T18:14:53.742Z,3.10
2022-11-26T18:17:20.995Z,3.10
2022-11-26T18:19:48.215Z,2.85
2022-11-26T18:22:16.755Z,3.28
2022-11-26T18:24:51.001Z,3.20
2022-11-26T18:27:21.138Z,3.70
2022-11-26T18:29:48.017Z,3.13
2022-11-26T18:32:14.972Z,3.72
2022-11-26T18:34:42.044Z,3.97
2022-11-26T18:37:09.591Z,3.45
2022-11-26T18:39:37.773Z,3.22
2022-11-26T18:42:35.501Z,3.20
2022-11-26T18:44:52.067Z,2.85
2022-11-26T18:47:19.019Z,3.15
2022-11-26T18:49:47.798Z,3.30
2022-11-26T18:52:14.970Z,3.70
2022-11-26T18:54:41.997Z,3.33
2022-11-26T18:57:14.904Z,3.53
2022-11-26T18:59:42.332Z,5.80
2022-11-26T19:02:10.677Z,5.85
2022-11-26T19:04:38.960Z,5.47
2022-11-26T19:07:06.030Z,5.30
2022-11-26T19:09:33.385Z,4.78
2022-11-26T19:12:00.792Z,3.40
2022-11-26T19:14:27.873Z,3.70
2022-11-26T19:16:54.786Z,3.88
2022-11-26T19:19:21.971Z,4.35
2022-11-26T19:21:50.354Z,3.90
2022-11-26T19:24:17.249Z,3.80
2022-11-26T19:26:44.200Z,3.53
2022-11-26T19:29:11.853Z,3.22
2022-11-26T19:31:39.603Z,3.00
2022-11-26T19:34:19.028Z,3.55
2022-11-26T19:36:48.653Z,3.58
2022-11-26T19:39:16.520Z,3.58
2022-11-26T19:41:43.467Z,3.33
2022-11-26T19:44:10.356Z,3.13
2022-11-26T19:46:40.523Z,3.20
2022-11-26T19:49:07.648Z,3.00
2022-11-26T19:51:34.567Z,3.08
2022-11-26T19:54:03.808Z,3.28
2022-11-26T19:56:31.562Z,3.10
2022-11-26T19:59:01.996Z,3.05
2022-11-26T20:01:31.000Z,3.67
2022-11-26T20:03:59.618Z,2.80
2022-11-26T20:06:27.056Z,3.80
2022-11-26T20:08:54.423Z,3.47
2022-11-26T20:11:23.606Z,3.17
2022-11-26T20:13:50.597Z,3.78
2022-11-26T20:16:23.033Z,3.25
2022-11-26T20:18:50.161Z,3.20
2022-11-26T20:21:21.075Z,3.17
2022-11-26T20:23:48.844Z,3.28
2022-11-26T20:26:17.738Z,3.40
2022-11-26T20:28:44.798Z,3.50
2022-11-26T20:31:11.840Z,3.45
2022-11-26T20:33:39.117Z,3.78
2022-11-26T20:36:09.960Z,3.90
2022-11-26T20:38:37.743Z,3.88
2022-11-26T20:41:12.866Z,4.20
2022-11-26T20:43:39.804Z,3.55
2022-11-26T20:46:10.580Z,3.85
2022-11-26T20:48:41.118Z,4.13
2022-11-26T20:51:15.505Z,3.72
2022-11-26T20:53:46.300Z,3.83
2022-11-26T20:56:14.204Z,3.85
2022-11-26T20:58:41.696Z,3.83
2022-11-26T21:01:14.588Z,3.92
2022-11-26T21:03:41.510Z,4.15
2022-11-26T21:06:08.631Z,3.97
2022-11-26T21:08:44.886Z,4.07
2022-11-26T21:11:12.327Z,4.13
2022-11-26T21:13:39.509Z,4.05
2022-11-26T21:16:07.633Z,3.70
2022-11-26T21:18:34.921Z,4.03
2022-11-26T21:21:12.274Z,4.30
2022-11-26T21:23:39.559Z,3.80
2022-11-26T21:26:11.207Z,4.93
2022-11-26T21:28:38.488Z,3.92
2022-11-26T21:31:14.768Z,4.63
2022-11-26T21:33:41.883Z,4.28
2022-11-26T21:36:10.263Z,4.53
2022-11-26T21:38:37.226Z,4.40
2022-11-26T21:41:05.675Z,3.95
2022-11-26T21:43:32.551Z,4.25
2022-11-26T21:46:03.858Z,4.50
2022-11-26T21:48:31.100Z,4.60
2022-11-26T21:50:57.912Z,3.60
2022-11-26T21:53:24.984Z,4.40
2022-11-26T21:55:53.123Z,3.88
2022-11-26T21:58:20.033Z,4.00
2022-11-26T22:00:46.885Z,4.07
2022-11-26T22:03:13.708Z,5.05
2022-11-26T22:05:41.906Z,4.00
2022-11-26T22:08:09.020Z,4.40
2022-11-26T22:10:36.741Z,4.70
2022-11-26T22:13:03.768Z,3.75
2022-11-26T22:15:30.633Z,4.13
2022-11-26T22:17:57.501Z,4.40
2022-11-26T22:20:25.200Z,4.10
2022-11-26T22:22:52.053Z,4.50
2022-11-26T22:25:18.848Z,3.95
2022-11-26T22:27:48.041Z,3.92
2022-11-26T22:30:15.184Z,3.92
2022-11-26T22:32:42.110Z,4.18
2022-11-26T22:35:09.955Z,3.78
2022-11-26T22:37:36.863Z,3.80
2022-11-26T22:40:04.000Z,4.07
2022-11-26T22:42:31.078Z,3.55
2022-11-26T22:44:58.005Z,4.07
2022-11-26T22:47:24.847Z,3.50
2022-11-26T22:49:51.834Z,3.85
2022-11-26T22:52:18.673Z,3.80
2022-11-26T22:54:45.600Z,3.78
2022-11-26T22:57:12.808Z,3.45
2022-11-26T22:59:39.931Z,3.95
2022-11-26T23:02:07.209Z,3.38
2022-11-26T23:04:37.650Z,3.20
2022-11-26T23:07:05.096Z,3.00
2022-11-26T23:09:32.278Z,3.47
2022-11-26T23:11:59.908Z,3.40
2022-11-26T23:14:27.444Z,3.25
2022-11-26T23:16:54.306Z,2.75
2022-11-26T23:19:21.251Z,2.45
2022-11-26T23:21:49.803Z,2.17
2022-11-26T23:24:16.823Z,2.55
2022-11-26T23:26:43.799Z,1.73
2022-11-26T23:29:14.387Z,2.00
2022-11-26T23:31:42.921Z,2.20
2022-11-26T23:34:10.083Z,1.60
2022-11-26T23:36:37.429Z,1.35
2022-11-26T23:39:06.386Z,1.40
2022-11-26T23:41:33.554Z,1.25
2022-11-26T23:44:03.079Z,1.50
2022-11-26T23:46:31.360Z,1.50
2022-11-26T23:48:58.676Z,1.20
2022-11-26T23:51:28.218Z,1.50
2022-11-26T23:53:55.269Z,1.40
2022-11-26T23:56:27.593Z,1.33
2022-11-26T23:58:56.170Z,1.35
